Terminal Aerodrome Forecast
Issued by NWS Spokane, WA

Home | Current Version | Previous Version | Text Only | Print | Product List | Glossary On
Versions: 1 2 3 4 5 6 7 8 9 10 11 12
000
FTUS46 KOTX 300539
TAFEAT
TAF
KEAT 300539Z 3006/3106 12005KT P6SM SCT250
     FM300700 30005KT P6SM BKN250
     FM301200 28008KT P6SM SCT180 BKN250
     FM301800 12007KT P6SM SCT150 BKN200
     FM310100 30016G28KT P6SM VCTS BKN100CB OVC150=

USA.gov is the U.S. government's official web portal to all federal, state and local government web resources and services.